createdAt,value
2023-04-18T00:03:04.087Z,101331.70
2023-04-18T00:07:57.514Z,101330.16
2023-04-18T00:12:50.210Z,101329.38
2023-04-18T00:17:43.000Z,101332.52
2023-04-18T00:22:35.837Z,101332.95
2023-04-18T00:27:28.514Z,101334.79
2023-04-18T00:32:21.674Z,101338.54
2023-04-18T00:37:14.437Z,101338.31
2023-04-18T00:42:07.980Z,101334.39
2023-04-18T00:47:00.681Z,101335.48
2023-04-18T00:51:53.677Z,101337.48
2023-04-18T00:56:46.937Z,101338.69
2023-04-18T01:01:41.872Z,101341.57
2023-04-18T01:06:34.772Z,101339.06
2023-04-18T01:11:27.466Z,101341.27
2023-04-18T01:16:20.209Z,101341.25
2023-04-18T01:21:15.629Z,101336.82
2023-04-18T01:26:08.750Z,101337.14
2023-04-18T01:31:01.524Z,101335.21
2023-04-18T01:35:54.302Z,101332.70
2023-04-18T01:40:47.722Z,101330.41
2023-04-18T01:45:41.014Z,101329.59
2023-04-18T01:50:34.810Z,101327.25
2023-04-18T01:55:27.512Z,101326.55
2023-04-18T02:00:21.157Z,101325.98
2023-04-18T02:05:13.830Z,101328.82
2023-04-18T02:10:06.770Z,101327.59
2023-04-18T02:14:59.534Z,101325.18
2023-04-18T02:19:52.345Z,101319.29
2023-04-18T02:24:45.091Z,101313.78
2023-04-18T02:29:37.817Z,101312.02
2023-04-18T02:34:30.518Z,101310.08
2023-04-18T02:39:23.257Z,101311.80
2023-04-18T02:44:17.162Z,101310.61
2023-04-18T02:49:10.232Z,101309.89
2023-04-18T02:54:03.072Z,101312.85
2023-04-18T02:59:04.332Z,101313.38
2023-04-18T03:04:13.280Z,101315.48
2023-04-18T03:09:12.546Z,101317.18
2023-04-18T03:14:09.711Z,101327.06
2023-04-18T03:19:08.691Z,101327.71
2023-04-18T03:24:01.766Z,101329.89
2023-04-18T03:28:54.627Z,101329.69
2023-04-18T03:33:47.577Z,101328.48
2023-04-18T03:38:41.090Z,101328.80
2023-04-18T03:43:34.190Z,101332.75
2023-04-18T03:48:27.269Z,101333.05
2023-04-18T03:53:21.170Z,101336.65
2023-04-18T03:58:14.298Z,101342.13
2023-04-18T04:03:08.118Z,101344.73
2023-04-18T04:08:01.063Z,101348.36
2023-04-18T04:12:53.788Z,101343.20
2023-04-18T04:17:47.168Z,101341.39
2023-04-18T04:22:40.807Z,101344.50
2023-04-18T04:27:36.980Z,101349.16
2023-04-18T04:32:31.110Z,101351.45
2023-04-18T04:37:25.240Z,101352.96
2023-04-18T04:42:28.708Z,101357.95
2023-04-18T04:47:32.521Z,101356.73
2023-04-18T04:52:25.379Z,101361.94
2023-04-18T04:57:18.938Z,101359.49
2023-04-18T05:02:11.771Z,101360.61
2023-04-18T05:07:04.793Z,101366.86
2023-04-18T05:11:57.865Z,101368.81
2023-04-18T05:16:50.560Z,101365.39
2023-04-18T05:21:43.662Z,101365.39
2023-04-18T05:26:36.383Z,101366.27
2023-04-18T05:31:33.442Z,101370.05
2023-04-18T05:36:28.842Z,101370.03
2023-04-18T05:41:21.550Z,101371.39
2023-04-18T05:46:14.803Z,101374.48
2023-04-18T05:51:07.812Z,101379.60
2023-04-18T05:56:01.489Z,101380.58
2023-04-18T06:00:54.213Z,101382.73
2023-04-18T06:05:47.045Z,101384.67
2023-04-18T06:10:39.796Z,101387.75
2023-04-18T06:15:32.702Z,101387.46
2023-04-18T06:20:25.567Z,101392.06
2023-04-18T06:25:18.717Z,101388.71
2023-04-18T06:30:11.712Z,101390.80
2023-04-18T06:35:04.447Z,101388.00
2023-04-18T06:39:57.494Z,101389.29
2023-04-18T06:44:50.225Z,101392.93
2023-04-18T06:49:43.059Z,101394.67
2023-04-18T06:54:36.481Z,101395.46
2023-04-18T06:59:29.241Z,101391.11
2023-04-18T07:04:22.214Z,101391.75
2023-04-18T07:09:15.301Z,101396.34
2023-04-18T07:14:08.113Z,101397.19
2023-04-18T07:19:01.055Z,101392.30
2023-04-18T07:23:54.022Z,101395.42
2023-04-18T07:28:47.039Z,101393.58
2023-04-18T07:33:40.204Z,101387.50
2023-04-18T07:38:34.941Z,101389.67
2023-04-18T07:43:27.642Z,101389.93
2023-04-18T07:48:22.283Z,101386.73
2023-04-18T07:53:15.855Z,101392.06
2023-04-18T07:58:08.554Z,101397.05
2023-04-18T08:03:01.507Z,101401.40
2023-04-18T08:07:54.422Z,101406.64
2023-04-18T08:12:47.342Z,101402.23
2023-04-18T08:17:42.685Z,101400.55
2023-04-18T08:22:39.299Z,101403.59
2023-04-18T08:27:36.882Z,101395.82
2023-04-18T08:32:29.555Z,101394.95
2023-04-18T08:37:22.275Z,101395.63
2023-04-18T08:42:17.420Z,101397.69
2023-04-18T08:47:10.941Z,101380.33
2023-04-18T08:52:04.185Z,101375.19
2023-04-18T08:57:08.081Z,101370.33
2023-04-18T09:02:01.751Z,101364.55
2023-04-18T09:06:55.415Z,101353.10
2023-04-18T09:11:48.266Z,101352.83
2023-04-18T09:16:48.216Z,101348.51
2023-04-18T09:21:42.315Z,101345.91
2023-04-18T09:26:36.485Z,101340.24
2023-04-18T09:31:30.550Z,101336.15
2023-04-18T09:36:25.054Z,101329.45
2023-04-18T09:41:20.830Z,101332.70
2023-04-18T09:46:14.996Z,101330.77
2023-04-18T09:51:08.741Z,101324.05
2023-04-18T09:56:02.476Z,101321.30
2023-04-18T10:00:55.688Z,101327.93
2023-04-18T10:05:48.737Z,101336.04
2023-04-18T10:10:42.514Z,101333.18
2023-04-18T10:15:35.995Z,101327.70
2023-04-18T10:20:30.312Z,101326.30
2023-04-18T10:25:35.130Z,101319.20
2023-04-18T10:30:40.367Z,101316.53
2023-04-18T10:35:36.081Z,101312.21
2023-04-18T10:40:35.973Z,101313.17
2023-04-18T10:45:31.370Z,101308.27
2023-04-18T10:50:24.118Z,101302.83
2023-04-18T10:55:22.156Z,101298.14
2023-04-18T11:00:18.359Z,101298.59
2023-04-18T11:05:11.131Z,101301.73
2023-04-18T11:10:04.374Z,101297.63
2023-04-18T11:14:57.182Z,101295.23
2023-04-18T11:19:50.196Z,101291.61
2023-04-18T11:24:43.114Z,101291.40
2023-04-18T11:29:35.851Z,101289.38
2023-04-18T11:34:32.006Z,101282.17
2023-04-18T11:39:25.097Z,101280.20
2023-04-18T11:44:27.912Z,101280.79
2023-04-18T11:49:28.098Z,101280.40
2023-04-18T11:54:37.096Z,101272.52
2023-04-18T11:59:29.832Z,101269.48
2023-04-18T12:04:23.024Z,101265.02
2023-04-18T12:09:19.714Z,101263.87
2023-04-18T12:14:22.471Z,101266.21
2023-04-18T12:19:15.615Z,101264.55
2023-04-18T12:24:16.781Z,101264.97
2023-04-18T12:29:10.177Z,101261.35
2023-04-18T12:34:03.349Z,101252.95
2023-04-18T12:38:56.169Z,101245.57
2023-04-18T12:43:49.203Z,101242.06
2023-04-18T12:48:41.911Z,101242.77
2023-04-18T12:53:34.847Z,101237.87
2023-04-18T12:58:27.690Z,101235.44
2023-04-18T13:03:20.545Z,101231.60
2023-04-18T13:08:17.612Z,101229.13
2023-04-18T13:13:10.985Z,101226.63
2023-04-18T13:18:06.353Z,101216.77
2023-04-18T13:23:00.053Z,101205.97
2023-04-18T13:27:52.794Z,101199.61
2023-04-18T13:32:46.415Z,101196.80
2023-04-18T13:37:39.573Z,101197.58
2023-04-18T13:47:43.006Z,101194.05
2023-04-18T13:52:36.516Z,101193.44
2023-04-18T13:57:32.336Z,101191.91
2023-04-18T14:02:25.291Z,101192.66
2023-04-18T14:07:18.195Z,101192.52
2023-04-18T14:17:42.787Z,101183.79
2023-04-18T14:22:36.970Z,101178.35
2023-04-18T14:27:29.684Z,101174.89
2023-04-18T14:32:22.806Z,101172.94
2023-04-18T14:37:17.558Z,101170.69
2023-04-18T14:42:10.570Z,101170.51
2023-04-18T14:47:03.869Z,101165.60
2023-04-18T14:51:56.735Z,101163.15
2023-04-18T14:56:49.507Z,101158.96
2023-04-18T15:01:42.452Z,101161.41
2023-04-18T15:06:35.215Z,101162.47
2023-04-18T15:11:28.384Z,101158.44
2023-04-18T15:16:21.324Z,101157.55
2023-04-18T15:21:14.316Z,101151.79
2023-04-18T15:26:07.049Z,101152.13
2023-04-18T15:30:59.996Z,101155.28
2023-04-18T15:35:52.712Z,101154.04
2023-04-18T15:40:45.808Z,101154.20
2023-04-18T15:45:39.022Z,101154.38
2023-04-18T15:50:33.645Z,101155.41
2023-04-18T15:55:26.629Z,101154.84
2023-04-18T16:00:20.202Z,101151.99
2023-04-18T16:05:13.667Z,101150.42
2023-04-18T16:10:08.692Z,101147.07
2023-04-18T16:15:01.462Z,101143.73
2023-04-18T16:19:57.147Z,101138.14
2023-04-18T16:24:49.930Z,101139.52
2023-04-18T16:29:44.533Z,101138.27
2023-04-18T16:34:37.334Z,101133.71
2023-04-18T16:39:30.829Z,101133.19
2023-04-18T16:44:23.529Z,101128.61
2023-04-18T16:49:16.674Z,101129.80
2023-04-18T16:54:09.946Z,101126.94
2023-04-18T16:59:04.061Z,101128.23
2023-04-18T17:03:56.853Z,101125.88
2023-04-18T17:08:50.202Z,101125.91
2023-04-18T17:13:42.922Z,101125.44
2023-04-18T17:18:35.701Z,101124.27
2023-04-18T17:23:29.245Z,101124.35
2023-04-18T17:28:23.775Z,101126.09
2023-04-18T17:33:16.557Z,101126.73
2023-04-18T17:38:10.632Z,101126.85
2023-04-18T17:43:03.497Z,101122.76
2023-04-18T17:47:57.686Z,101127.54
2023-04-18T17:52:50.456Z,101129.59
2023-04-18T17:57:43.136Z,101129.05
2023-04-18T18:02:35.982Z,101127.30
2023-04-18T18:07:28.960Z,101123.83
2023-04-18T18:12:22.202Z,101127.33
2023-04-18T18:17:14.862Z,101124.42
2023-04-18T18:22:08.425Z,101124.83
2023-04-18T18:27:02.021Z,101118.60
2023-04-18T18:31:54.853Z,101118.66
2023-04-18T18:36:47.602Z,101110.54
2023-04-18T18:41:40.403Z,101107.10
2023-04-18T18:46:34.090Z,101107.42
2023-04-18T18:51:27.333Z,101104.80
2023-04-18T18:56:20.066Z,101099.98
2023-04-18T19:01:12.857Z,101095.48
2023-04-18T19:06:07.392Z,101093.83
2023-04-18T19:11:00.132Z,101088.66
2023-04-18T19:15:52.970Z,101085.09
2023-04-18T19:20:45.863Z,101080.46
2023-04-18T19:25:39.855Z,101077.92
2023-04-18T19:30:33.319Z,101074.48
2023-04-18T19:35:26.520Z,101069.15
2023-04-18T19:40:19.268Z,101067.64
2023-04-18T19:45:13.768Z,101062.10
2023-04-18T19:50:07.026Z,101062.27
2023-04-18T19:54:59.736Z,101057.23
2023-04-18T19:59:52.440Z,101055.54
2023-04-18T20:04:45.333Z,101053.33
2023-04-18T20:09:38.293Z,101049.70
2023-04-18T20:14:31.012Z,101045.77
2023-04-18T20:19:25.741Z,101042.47
2023-04-18T20:24:21.145Z,101040.88
2023-04-18T20:29:14.203Z,101034.94
2023-04-18T20:34:08.030Z,101035.08
2023-04-18T20:39:02.461Z,101029.85
2023-04-18T20:43:55.145Z,101024.09
2023-04-18T20:48:47.901Z,101018.82
2023-04-18T20:53:40.714Z,101018.08
2023-04-18T20:58:33.428Z,101014.02
2023-04-18T21:03:26.248Z,101014.85
2023-04-18T21:08:19.439Z,101009.41
2023-04-18T21:13:12.766Z,101004.49
2023-04-18T21:18:05.558Z,100994.38
2023-04-18T21:22:58.974Z,100989.29
2023-04-18T21:27:52.579Z,100988.88
2023-04-18T21:32:45.864Z,100986.20
2023-04-18T21:37:38.890Z,100982.85
2023-04-18T21:42:31.621Z,100978.42
2023-04-18T21:47:25.957Z,100976.45
2023-04-18T21:52:18.702Z,100972.56
2023-04-18T21:57:11.418Z,100970.89
2023-04-18T22:02:05.032Z,100967.86
2023-04-18T22:06:57.998Z,100968.48
2023-04-18T22:11:51.708Z,100965.40
2023-04-18T22:16:45.102Z,100959.58
2023-04-18T22:21:37.916Z,100957.41
2023-04-18T22:26:30.611Z,100953.67
2023-04-18T22:31:23.466Z,100952.23
2023-04-18T22:36:17.116Z,100950.03
2023-04-18T22:41:09.987Z,100941.73
2023-04-18T22:46:02.793Z,100935.00
2023-04-18T22:50:55.617Z,100935.91
2023-04-18T22:55:48.309Z,100929.92
2023-04-18T23:00:41.092Z,100928.77
2023-04-18T23:05:34.463Z,100920.33
2023-04-18T23:10:27.275Z,100913.10
2023-04-18T23:15:22.937Z,100909.94
2023-04-18T23:20:16.548Z,100902.22
2023-04-18T23:25:09.432Z,100894.70
2023-04-18T23:30:03.329Z,100888.94
2023-04-18T23:34:56.058Z,100883.85
2023-04-18T23:39:49.600Z,100876.12
2023-04-18T23:44:42.334Z,100869.62
2023-04-18T23:49:35.159Z,100866.91
2023-04-18T23:54:28.094Z,100867.67
2023-04-18T23:59:20.814Z,100863.59
